sensor_id;sensor_type;location;lat;lon;timestamp;temperature;humidity
47576;DHT22;33304;52.456;13.328;2023-06-26T00:01:41;20.60;39.20
47576;DHT22;33304;52.456;13.328;2023-06-26T00:04:08;20.60;39.50
47576;DHT22;33304;52.456;13.328;2023-06-26T00:06:40;20.50;39.40
47576;DHT22;33304;52.456;13.328;2023-06-26T00:09:07;20.50;39.70
47576;DHT22;33304;52.456;13.328;2023-06-26T00:11:34;20.50;40.00
47576;DHT22;33304;52.456;13.328;2023-06-26T00:14:01;20.40;41.00
47576;DHT22;33304;52.456;13.328;2023-06-26T00:16:29;20.50;41.10
47576;DHT22;33304;52.456;13.328;2023-06-26T00:18:58;20.50;41.10
47576;DHT22;33304;52.456;13.328;2023-06-26T00:21:25;20.40;41.00
47576;DHT22;33304;52.456;13.328;2023-06-26T00:23:53;20.40;41.00
47576;DHT22;33304;52.456;13.328;2023-06-26T00:26:20;20.40;41.00
47576;DHT22;33304;52.456;13.328;2023-06-26T00:28:47;20.40;41.00
47576;DHT22;33304;52.456;13.328;2023-06-26T00:31:14;20.40;41.00
47576;DHT22;33304;52.456;13.328;2023-06-26T00:33:42;20.40;41.00
47576;DHT22;33304;52.456;13.328;2023-06-26T00:36:10;20.50;41.10
47576;DHT22;33304;52.456;13.328;2023-06-26T00:38:37;20.40;41.00
47576;DHT22;33304;52.456;13.328;2023-06-26T00:41:06;20.40;41.00
47576;DHT22;33304;52.456;13.328;2023-06-26T00:43:38;20.30;41.00
47576;DHT22;33304;52.456;13.328;2023-06-26T00:46:09;20.30;41.00
47576;DHT22;33304;52.456;13.328;2023-06-26T00:48:36;20.30;41.00
47576;DHT22;33304;52.456;13.328;2023-06-26T00:51:06;20.20;40.80
47576;DHT22;33304;52.456;13.328;2023-06-26T00:53:34;20.20;41.70
47576;DHT22;33304;52.456;13.328;2023-06-26T00:56:02;20.20;42.00
47576;DHT22;33304;52.456;13.328;2023-06-26T00:58:30;20.20;42.10
47576;DHT22;33304;52.456;13.328;2023-06-26T01:00:57;20.10;42.70
47576;DHT22;33304;52.456;13.328;2023-06-26T01:03:25;20.10;42.70
47576;DHT22;33304;52.456;13.328;2023-06-26T01:05:56;20.20;42.10
47576;DHT22;33304;52.456;13.328;2023-06-26T01:08:25;20.20;43.00
47576;DHT22;33304;52.456;13.328;2023-06-26T01:10:55;20.10;43.50
47576;DHT22;33304;52.456;13.328;2023-06-26T01:13:23;20.10;43.90
47576;DHT22;33304;52.456;13.328;2023-06-26T01:15:51;20.10;44.40
47576;DHT22;33304;52.456;13.328;2023-06-26T01:18:20;20.00;44.60
47576;DHT22;33304;52.456;13.328;2023-06-26T01:20:47;20.00;45.10
47576;DHT22;33304;52.456;13.328;2023-06-26T01:23:19;20.00;44.90
47576;DHT22;33304;52.456;13.328;2023-06-26T01:28:32;20.00;44.50
47576;DHT22;33304;52.456;13.328;2023-06-26T01:31:01;20.00;45.40
47576;DHT22;33304;52.456;13.328;2023-06-26T01:33:30;20.00;45.70
47576;DHT22;33304;52.456;13.328;2023-06-26T01:35:58;19.90;45.50
47576;DHT22;33304;52.456;13.328;2023-06-26T01:38:27;20.00;45.30
47576;DHT22;33304;52.456;13.328;2023-06-26T01:40:57;20.00;45.90
47576;DHT22;33304;52.456;13.328;2023-06-26T01:43:27;20.00;44.90
47576;DHT22;33304;52.456;13.328;2023-06-26T01:46:00;20.00;45.30
47576;DHT22;33304;52.456;13.328;2023-06-26T01:48:32;20.00;45.10
47576;DHT22;33304;52.456;13.328;2023-06-26T01:51:01;19.90;45.40
47576;DHT22;33304;52.456;13.328;2023-06-26T01:53:35;19.90;46.00
47576;DHT22;33304;52.456;13.328;2023-06-26T01:56:07;19.80;45.60
47576;DHT22;33304;52.456;13.328;2023-06-26T01:58:39;19.90;46.00
47576;DHT22;33304;52.456;13.328;2023-06-26T02:01:09;19.90;45.80
47576;DHT22;33304;52.456;13.328;2023-06-26T02:03:36;19.80;45.50
47576;DHT22;33304;52.456;13.328;2023-06-26T02:06:03;19.80;45.80
47576;DHT22;33304;52.456;13.328;2023-06-26T02:08:30;19.80;45.90
47576;DHT22;33304;52.456;13.328;2023-06-26T02:10:57;19.90;45.90
47576;DHT22;33304;52.456;13.328;2023-06-26T02:13:24;19.80;46.40
47576;DHT22;33304;52.456;13.328;2023-06-26T02:15:51;19.80;46.60
47576;DHT22;33304;52.456;13.328;2023-06-26T02:18:20;19.80;46.40
47576;DHT22;33304;52.456;13.328;2023-06-26T02:20:49;19.90;46.40
47576;DHT22;33304;52.456;13.328;2023-06-26T02:23:16;19.90;45.70
47576;DHT22;33304;52.456;13.328;2023-06-26T02:25:43;19.80;45.60
47576;DHT22;33304;52.456;13.328;2023-06-26T02:28:10;19.80;46.00
47576;DHT22;33304;52.456;13.328;2023-06-26T02:30:37;19.80;46.10
47576;DHT22;33304;52.456;13.328;2023-06-26T02:33:04;19.70;46.20
47576;DHT22;33304;52.456;13.328;2023-06-26T02:35:33;19.70;47.00
47576;DHT22;33304;52.456;13.328;2023-06-26T02:38:00;19.70;47.30
47576;DHT22;33304;52.456;13.328;2023-06-26T02:40:27;19.70;47.60
47576;DHT22;33304;52.456;13.328;2023-06-26T02:42:54;19.60;49.40
47576;DHT22;33304;52.456;13.328;2023-06-26T02:45:21;19.70;48.10
47576;DHT22;33304;52.456;13.328;2023-06-26T02:47:49;19.50;48.50
47576;DHT22;33304;52.456;13.328;2023-06-26T02:50:16;19.70;47.30
47576;DHT22;33304;52.456;13.328;2023-06-26T02:53:01;19.60;47.90
47576;DHT22;33304;52.456;13.328;2023-06-26T02:55:28;19.60;47.70
47576;DHT22;33304;52.456;13.328;2023-06-26T02:57:56;19.70;47.00
47576;DHT22;33304;52.456;13.328;2023-06-26T03:00:23;19.60;46.80
47576;DHT22;33304;52.456;13.328;2023-06-26T03:02:53;19.60;47.30
47576;DHT22;33304;52.456;13.328;2023-06-26T03:05:22;19.50;47.80
47576;DHT22;33304;52.456;13.328;2023-06-26T03:07:50;19.50;48.50
47576;DHT22;33304;52.456;13.328;2023-06-26T03:10:18;19.40;48.30
47576;DHT22;33304;52.456;13.328;2023-06-26T03:12:45;19.50;49.00
47576;DHT22;33304;52.456;13.328;2023-06-26T03:15:12;19.40;49.50
47576;DHT22;33304;52.456;13.328;2023-06-26T03:17:40;19.40;49.30
47576;DHT22;33304;52.456;13.328;2023-06-26T03:20:11;19.40;49.10
47576;DHT22;33304;52.456;13.328;2023-06-26T03:22:51;19.40;48.40
47576;DHT22;33304;52.456;13.328;2023-06-26T03:25:20;19.50;47.80
47576;DHT22;33304;52.456;13.328;2023-06-26T03:27:49;19.50;47.40
47576;DHT22;33304;52.456;13.328;2023-06-26T03:30:17;19.60;47.00
47576;DHT22;33304;52.456;13.328;2023-06-26T03:32:47;19.60;46.50
47576;DHT22;33304;52.456;13.328;2023-06-26T03:35:14;19.60;46.70
47576;DHT22;33304;52.456;13.328;2023-06-26T03:37:41;19.60;46.80
47576;DHT22;33304;52.456;13.328;2023-06-26T03:40:09;19.70;47.10
47576;DHT22;33304;52.456;13.328;2023-06-26T03:42:38;19.60;46.20
47576;DHT22;33304;52.456;13.328;2023-06-26T03:45:06;19.60;46.40
47576;DHT22;33304;52.456;13.328;2023-06-26T03:47:34;19.60;46.20
47576;DHT22;33304;52.456;13.328;2023-06-26T03:50:15;19.70;46.00
47576;DHT22;33304;52.456;13.328;2023-06-26T03:52:50;19.70;45.60
47576;DHT22;33304;52.456;13.328;2023-06-26T03:55:17;19.70;46.00
47576;DHT22;33304;52.456;13.328;2023-06-26T03:57:46;19.70;45.60
47576;DHT22;33304;52.456;13.328;2023-06-26T04:00:14;19.80;45.20
47576;DHT22;33304;52.456;13.328;2023-06-26T04:02:42;19.80;44.60
47576;DHT22;33304;52.456;13.328;2023-06-26T04:05:11;19.80;44.90
47576;DHT22;33304;52.456;13.328;2023-06-26T04:07:38;19.60;44.70
47576;DHT22;33304;52.456;13.328;2023-06-26T04:10:06;19.60;44.40
47576;DHT22;33304;52.456;13.328;2023-06-26T04:12:34;19.70;44.00
47576;DHT22;33304;52.456;13.328;2023-06-26T04:15:03;19.70;44.30
47576;DHT22;33304;52.456;13.328;2023-06-26T04:17:30;19.70;44.20
47576;DHT22;33304;52.456;13.328;2023-06-26T04:19:57;19.90;43.00
47576;DHT22;33304;52.456;13.328;2023-06-26T04:22:25;19.90;42.80
47576;DHT22;33304;52.456;13.328;2023-06-26T04:24:52;20.10;41.40
47576;DHT22;33304;52.456;13.328;2023-06-26T04:27:22;20.20;40.90
47576;DHT22;33304;52.456;13.328;2023-06-26T04:29:49;20.30;41.00
47576;DHT22;33304;52.456;13.328;2023-06-26T04:32:17;20.20;40.90
47576;DHT22;33304;52.456;13.328;2023-06-26T04:34:44;19.90;41.70
47576;DHT22;33304;52.456;13.328;2023-06-26T04:37:13;19.80;41.90
47576;DHT22;33304;52.456;13.328;2023-06-26T04:39:42;19.80;42.70
47576;DHT22;33304;52.456;13.328;2023-06-26T04:42:09;19.90;42.00
47576;DHT22;33304;52.456;13.328;2023-06-26T04:44:38;19.70;41.90
47576;DHT22;33304;52.456;13.328;2023-06-26T04:47:07;19.80;41.30
47576;DHT22;33304;52.456;13.328;2023-06-26T04:49:35;19.70;42.00
47576;DHT22;33304;52.456;13.328;2023-06-26T04:52:03;19.80;42.20
47576;DHT22;33304;52.456;13.328;2023-06-26T04:54:30;19.80;41.80
47576;DHT22;33304;52.456;13.328;2023-06-26T04:56:57;19.90;40.60
47576;DHT22;33304;52.456;13.328;2023-06-26T04:59:25;20.00;40.70
47576;DHT22;33304;52.456;13.328;2023-06-26T05:01:52;20.10;40.70
47576;DHT22;33304;52.456;13.328;2023-06-26T05:04:19;20.20;40.60
47576;DHT22;33304;52.456;13.328;2023-06-26T05:06:48;20.40;39.40
47576;DHT22;33304;52.456;13.328;2023-06-26T05:09:15;20.40;38.80
47576;DHT22;33304;52.456;13.328;2023-06-26T05:11:42;20.50;38.20
47576;DHT22;33304;52.456;13.328;2023-06-26T05:14:10;20.60;37.20
47576;DHT22;33304;52.456;13.328;2023-06-26T05:16:38;20.60;37.10
47576;DHT22;33304;52.456;13.328;2023-06-26T05:19:05;20.70;36.80
47576;DHT22;33304;52.456;13.328;2023-06-26T05:21:33;20.70;35.40
47576;DHT22;33304;52.456;13.328;2023-06-26T05:24:02;20.60;35.00
47576;DHT22;33304;52.456;13.328;2023-06-26T05:26:30;20.70;34.90
47576;DHT22;33304;52.456;13.328;2023-06-26T05:28:58;20.70;35.20
47576;DHT22;33304;52.456;13.328;2023-06-26T05:31:25;20.60;35.90
47576;DHT22;33304;52.456;13.328;2023-06-26T05:33:55;20.70;35.90
47576;DHT22;33304;52.456;13.328;2023-06-26T05:36:24;20.70;34.60
47576;DHT22;33304;52.456;13.328;2023-06-26T05:38:52;20.70;34.90
47576;DHT22;33304;52.456;13.328;2023-06-26T05:41:21;20.80;34.80
47576;DHT22;33304;52.456;13.328;2023-06-26T05:43:49;20.70;33.70
47576;DHT22;33304;52.456;13.328;2023-06-26T05:46:16;20.70;34.20
47576;DHT22;33304;52.456;13.328;2023-06-26T05:48:43;21.00;30.70
47576;DHT22;33304;52.456;13.328;2023-06-26T05:51:10;21.10;29.80
47576;DHT22;33304;52.456;13.328;2023-06-26T05:53:38;21.30;29.30
47576;DHT22;33304;52.456;13.328;2023-06-26T05:56:06;21.40;28.60
47576;DHT22;33304;52.456;13.328;2023-06-26T05:58:35;21.40;29.20
47576;DHT22;33304;52.456;13.328;2023-06-26T06:01:02;21.20;29.30
47576;DHT22;33304;52.456;13.328;2023-06-26T06:03:29;21.40;28.50
47576;DHT22;33304;52.456;13.328;2023-06-26T06:05:56;21.40;28.40
47576;DHT22;33304;52.456;13.328;2023-06-26T06:08:23;21.50;27.90
47576;DHT22;33304;52.456;13.328;2023-06-26T06:10:50;21.50;28.10
47576;DHT22;33304;52.456;13.328;2023-06-26T06:13:17;21.60;28.30
47576;DHT22;33304;52.456;13.328;2023-06-26T06:15:45;21.70;27.00
47576;DHT22;33304;52.456;13.328;2023-06-26T06:18:12;22.00;26.10
47576;DHT22;33304;52.456;13.328;2023-06-26T06:20:39;22.20;26.10
47576;DHT22;33304;52.456;13.328;2023-06-26T06:23:06;22.00;26.60
47576;DHT22;33304;52.456;13.328;2023-06-26T06:25:33;22.10;25.70
47576;DHT22;33304;52.456;13.328;2023-06-26T06:28:00;22.40;25.00
47576;DHT22;33304;52.456;13.328;2023-06-26T06:30:28;22.50;25.10
47576;DHT22;33304;52.456;13.328;2023-06-26T06:32:58;22.50;26.00
47576;DHT22;33304;52.456;13.328;2023-06-26T06:35:25;22.50;25.50
47576;DHT22;33304;52.456;13.328;2023-06-26T06:37:52;22.70;25.30
47576;DHT22;33304;52.456;13.328;2023-06-26T06:40:19;22.90;24.70
47576;DHT22;33304;52.456;13.328;2023-06-26T06:42:48;22.90;24.30
47576;DHT22;33304;52.456;13.328;2023-06-26T06:45:15;23.10;24.30
47576;DHT22;33304;52.456;13.328;2023-06-26T06:47:42;23.30;23.10
47576;DHT22;33304;52.456;13.328;2023-06-26T06:50:10;23.50;22.70
47576;DHT22;33304;52.456;13.328;2023-06-26T06:52:39;23.70;22.50
47576;DHT22;33304;52.456;13.328;2023-06-26T06:55:07;24.00;22.20
47576;DHT22;33304;52.456;13.328;2023-06-26T06:57:36;24.30;21.70
47576;DHT22;33304;52.456;13.328;2023-06-26T07:00:05;24.50;20.70
47576;DHT22;33304;52.456;13.328;2023-06-26T07:02:34;24.90;18.20
47576;DHT22;33304;52.456;13.328;2023-06-26T07:05:02;25.10;17.00
47576;DHT22;33304;52.456;13.328;2023-06-26T07:07:32;24.80;17.20
47576;DHT22;33304;52.456;13.328;2023-06-26T07:10:01;24.80;18.00
47576;DHT22;33304;52.456;13.328;2023-06-26T07:12:28;25.00;17.10
47576;DHT22;33304;52.456;13.328;2023-06-26T07:14:56;25.10;17.80
47576;DHT22;33304;52.456;13.328;2023-06-26T07:17:23;24.90;18.40
47576;DHT22;33304;52.456;13.328;2023-06-26T07:19:50;25.20;17.60
47576;DHT22;33304;52.456;13.328;2023-06-26T07:22:17;24.90;17.10
47576;DHT22;33304;52.456;13.328;2023-06-26T07:24:47;25.30;16.80
47576;DHT22;33304;52.456;13.328;2023-06-26T07:27:14;25.50;16.40
47576;DHT22;33304;52.456;13.328;2023-06-26T07:29:42;25.60;14.20
47576;DHT22;33304;52.456;13.328;2023-06-26T07:32:09;25.40;16.50
47576;DHT22;33304;52.456;13.328;2023-06-26T07:34:36;25.50;16.30
47576;DHT22;33304;52.456;13.328;2023-06-26T07:37:04;25.30;16.30
47576;DHT22;33304;52.456;13.328;2023-06-26T07:39:31;25.00;16.30
47576;DHT22;33304;52.456;13.328;2023-06-26T07:41:59;25.00;17.40
47576;DHT22;33304;52.456;13.328;2023-06-26T07:44:26;25.20;16.70
47576;DHT22;33304;52.456;13.328;2023-06-26T07:46:53;25.30;15.50
47576;DHT22;33304;52.456;13.328;2023-06-26T07:49:21;25.40;15.30
47576;DHT22;33304;52.456;13.328;2023-06-26T07:51:49;25.50;13.70
47576;DHT22;33304;52.456;13.328;2023-06-26T07:54:16;25.30;14.00
47576;DHT22;33304;52.456;13.328;2023-06-26T07:56:53;25.20;13.80
47576;DHT22;33304;52.456;13.328;2023-06-26T07:59:23;25.20;13.00
47576;DHT22;33304;52.456;13.328;2023-06-26T08:01:51;25.20;14.30
47576;DHT22;33304;52.456;13.328;2023-06-26T08:04:19;25.50;13.10
47576;DHT22;33304;52.456;13.328;2023-06-26T08:06:48;25.60;13.20
47576;DHT22;33304;52.456;13.328;2023-06-26T08:09:15;25.80;13.30
47576;DHT22;33304;52.456;13.328;2023-06-26T08:11:43;25.80;11.70
47576;DHT22;33304;52.456;13.328;2023-06-26T08:14:10;25.80;11.40
47576;DHT22;33304;52.456;13.328;2023-06-26T08:16:39;26.00;12.50
47576;DHT22;33304;52.456;13.328;2023-06-26T08:19:06;25.90;11.00
47576;DHT22;33304;52.456;13.328;2023-06-26T08:21:34;26.00;12.20
47576;DHT22;33304;52.456;13.328;2023-06-26T08:24:01;26.10;11.00
47576;DHT22;33304;52.456;13.328;2023-06-26T08:26:29;26.30;10.30
47576;DHT22;33304;52.456;13.328;2023-06-26T08:28:56;26.30;9.70
47576;DHT22;33304;52.456;13.328;2023-06-26T08:31:23;26.40;8.00
47576;DHT22;33304;52.456;13.328;2023-06-26T08:33:51;26.40;8.40
47576;DHT22;33304;52.456;13.328;2023-06-26T08:36:18;26.40;8.50
47576;DHT22;33304;52.456;13.328;2023-06-26T08:38:45;26.40;6.10
47576;DHT22;33304;52.456;13.328;2023-06-26T08:41:12;26.60;6.70
47576;DHT22;33304;52.456;13.328;2023-06-26T08:43:40;26.70;7.40
47576;DHT22;33304;52.456;13.328;2023-06-26T08:46:07;26.80;5.70
47576;DHT22;33304;52.456;13.328;2023-06-26T08:48:35;26.80;5.50
47576;DHT22;33304;52.456;13.328;2023-06-26T08:51:09;26.80;4.80
47576;DHT22;33304;52.456;13.328;2023-06-26T08:53:43;26.90;5.10
47576;DHT22;33304;52.456;13.328;2023-06-26T08:56:15;27.00;4.60
47576;DHT22;33304;52.456;13.328;2023-06-26T08:58:44;27.10;4.80
47576;DHT22;33304;52.456;13.328;2023-06-26T09:01:11;27.20;5.00
47576;DHT22;33304;52.456;13.328;2023-06-26T09:03:39;27.20;5.20
47576;DHT22;33304;52.456;13.328;2023-06-26T09:06:08;27.20;4.50
47576;DHT22;33304;52.456;13.328;2023-06-26T09:08:35;27.30;5.50
47576;DHT22;33304;52.456;13.328;2023-06-26T09:11:02;27.60;5.40
47576;DHT22;33304;52.456;13.328;2023-06-26T09:13:30;27.60;3.80
47576;DHT22;33304;52.456;13.328;2023-06-26T09:15:57;27.80;3.90
47576;DHT22;33304;52.456;13.328;2023-06-26T09:18:24;27.70;3.80
47576;DHT22;33304;52.456;13.328;2023-06-26T09:20:52;27.80;3.90
47576;DHT22;33304;52.456;13.328;2023-06-26T09:23:21;27.70;3.80
47576;DHT22;33304;52.456;13.328;2023-06-26T09:25:51;27.70;2.10
47576;DHT22;33304;52.456;13.328;2023-06-26T09:28:18;27.80;3.10
47576;DHT22;33304;52.456;13.328;2023-06-26T09:30:45;27.70;3.40
47576;DHT22;33304;52.456;13.328;2023-06-26T09:33:14;27.80;3.90
47576;DHT22;33304;52.456;13.328;2023-06-26T09:35:41;27.80;2.60
47576;DHT22;33304;52.456;13.328;2023-06-26T09:38:09;27.90;2.60
47576;DHT22;33304;52.456;13.328;2023-06-26T09:40:37;27.90;3.10
47576;DHT22;33304;52.456;13.328;2023-06-26T09:43:05;27.90;3.60
47576;DHT22;33304;52.456;13.328;2023-06-26T09:45:32;28.00;3.30
47576;DHT22;33304;52.456;13.328;2023-06-26T09:48:00;28.00;4.00
47576;DHT22;33304;52.456;13.328;2023-06-26T09:50:29;28.10;3.20
47576;DHT22;33304;52.456;13.328;2023-06-26T09:52:58;28.20;3.20
47576;DHT22;33304;52.456;13.328;2023-06-26T09:55:26;28.30;4.20
47576;DHT22;33304;52.456;13.328;2023-06-26T09:57:56;28.30;3.00
47576;DHT22;33304;52.456;13.328;2023-06-26T10:00:26;28.30;3.10
47576;DHT22;33304;52.456;13.328;2023-06-26T10:02:53;28.30;4.20
47576;DHT22;33304;52.456;13.328;2023-06-26T10:05:20;28.30;4.30
47576;DHT22;33304;52.456;13.328;2023-06-26T10:07:47;28.30;2.60
47576;DHT22;33304;52.456;13.328;2023-06-26T10:10:16;28.40;4.20
47576;DHT22;33304;52.456;13.328;2023-06-26T10:12:47;28.50;2.00
47576;DHT22;33304;52.456;13.328;2023-06-26T10:15:17;28.40;1.40
47576;DHT22;33304;52.456;13.328;2023-06-26T10:17:46;28.50;4.30
47576;DHT22;33304;52.456;13.328;2023-06-26T10:20:14;28.40;2.50
47576;DHT22;33304;52.456;13.328;2023-06-26T10:22:45;28.60;3.00
47576;DHT22;33304;52.456;13.328;2023-06-26T10:25:14;28.60;1.10
47576;DHT22;33304;52.456;13.328;2023-06-26T10:27:45;28.70;2.00
47576;DHT22;33304;52.456;13.328;2023-06-26T10:30:17;28.90;2.00
47576;DHT22;33304;52.456;13.328;2023-06-26T10:32:46;29.10;2.60
47576;DHT22;33304;52.456;13.328;2023-06-26T10:35:14;29.10;1.00
47576;DHT22;33304;52.456;13.328;2023-06-26T10:37:42;29.20;2.20
47576;DHT22;33304;52.456;13.328;2023-06-26T10:40:10;29.30;1.00
47576;DHT22;33304;52.456;13.328;2023-06-26T10:42:39;29.20;2.00
47576;DHT22;33304;52.456;13.328;2023-06-26T10:45:10;29.30;2.00
47576;DHT22;33304;52.456;13.328;2023-06-26T10:47:40;29.40;1.00
47576;DHT22;33304;52.456;13.328;2023-06-26T10:50:22;29.40;1.00
47576;DHT22;33304;52.456;13.328;2023-06-26T10:53:08;29.40;1.00
47576;DHT22;33304;52.456;13.328;2023-06-26T10:55:35;29.40;1.00
47576;DHT22;33304;52.456;13.328;2023-06-26T10:58:03;29.50;1.00
47576;DHT22;33304;52.456;13.328;2023-06-26T11:00:30;29.60;1.00
47576;DHT22;33304;52.456;13.328;2023-06-26T11:02:59;29.60;1.00
47576;DHT22;33304;52.456;13.328;2023-06-26T11:05:28;29.70;1.00
47576;DHT22;33304;52.456;13.328;2023-06-26T11:08:03;29.90;1.00
47576;DHT22;33304;52.456;13.328;2023-06-26T11:10:48;30.00;1.00
47576;DHT22;33304;52.456;13.328;2023-06-26T11:13:17;30.00;1.00
47576;DHT22;33304;52.456;13.328;2023-06-26T11:15:45;30.00;1.00
47576;DHT22;33304;52.456;13.328;2023-06-26T11:18:14;29.90;1.00
47576;DHT22;33304;52.456;13.328;2023-06-26T11:20:41;29.80;1.00
47576;DHT22;33304;52.456;13.328;2023-06-26T11:23:08;29.70;1.00
47576;DHT22;33304;52.456;13.328;2023-06-26T11:25:36;29.80;1.00
47576;DHT22;33304;52.456;13.328;2023-06-26T11:28:04;29.80;1.00
47576;DHT22;33304;52.456;13.328;2023-06-26T11:30:32;30.00;1.00
47576;DHT22;33304;52.456;13.328;2023-06-26T11:33:06;30.20;1.00
47576;DHT22;33304;52.456;13.328;2023-06-26T11:35:34;30.30;1.00
47576;DHT22;33304;52.456;13.328;2023-06-26T11:38:03;30.50;1.00
47576;DHT22;33304;52.456;13.328;2023-06-26T11:40:32;30.40;1.00
47576;DHT22;33304;52.456;13.328;2023-06-26T11:43:00;30.40;1.00
47576;DHT22;33304;52.456;13.328;2023-06-26T11:45:29;30.40;1.00
47576;DHT22;33304;52.456;13.328;2023-06-26T11:47:57;30.60;1.00
47576;DHT22;33304;52.456;13.328;2023-06-26T11:50:25;30.80;1.00
47576;DHT22;33304;52.456;13.328;2023-06-26T11:52:57;30.90;1.00
47576;DHT22;33304;52.456;13.328;2023-06-26T11:55:25;31.00;1.00
47576;DHT22;33304;52.456;13.328;2023-06-26T11:57:54;31.10;1.00
47576;DHT22;33304;52.456;13.328;2023-06-26T12:00:22;31.20;1.00
47576;DHT22;33304;52.456;13.328;2023-06-26T12:02:49;31.10;1.00
47576;DHT22;33304;52.456;13.328;2023-06-26T12:05:18;31.10;1.00
47576;DHT22;33304;52.456;13.328;2023-06-26T12:07:47;31.10;1.00
47576;DHT22;33304;52.456;13.328;2023-06-26T12:10:16;31.20;1.00
47576;DHT22;33304;52.456;13.328;2023-06-26T12:12:45;31.40;1.00
47576;DHT22;33304;52.456;13.328;2023-06-26T12:15:14;31.50;1.00
47576;DHT22;33304;52.456;13.328;2023-06-26T12:17:42;31.40;1.00
47576;DHT22;33304;52.456;13.328;2023-06-26T12:20:18;31.40;1.00
47576;DHT22;33304;52.456;13.328;2023-06-26T12:22:46;31.60;1.00
47576;DHT22;33304;52.456;13.328;2023-06-26T12:25:15;31.40;1.00
47576;DHT22;33304;52.456;13.328;2023-06-26T12:27:45;31.50;1.00
47576;DHT22;33304;52.456;13.328;2023-06-26T12:30:12;31.60;1.00
47576;DHT22;33304;52.456;13.328;2023-06-26T12:32:40;31.50;1.00
47576;DHT22;33304;52.456;13.328;2023-06-26T12:35:09;31.80;1.00
47576;DHT22;33304;52.456;13.328;2023-06-26T12:37:37;32.40;1.00
47576;DHT22;33304;52.456;13.328;2023-06-26T12:40:17;33.30;1.00
47576;DHT22;33304;52.456;13.328;2023-06-26T12:42:45;33.90;1.00
47576;DHT22;33304;52.456;13.328;2023-06-26T12:45:13;34.40;1.00
47576;DHT22;33304;52.456;13.328;2023-06-26T12:47:41;34.20;1.00
47576;DHT22;33304;52.456;13.328;2023-06-26T12:50:08;34.50;1.00
47576;DHT22;33304;52.456;13.328;2023-06-26T12:52:36;34.60;1.00
47576;DHT22;33304;52.456;13.328;2023-06-26T12:55:03;35.00;1.00
47576;DHT22;33304;52.456;13.328;2023-06-26T12:57:33;34.80;1.00
47576;DHT22;33304;52.456;13.328;2023-06-26T13:00:00;35.10;1.00
47576;DHT22;33304;52.456;13.328;2023-06-26T13:02:27;34.80;1.00
47576;DHT22;33304;52.456;13.328;2023-06-26T13:04:54;34.00;1.00
47576;DHT22;33304;52.456;13.328;2023-06-26T13:07:21;33.50;1.00
47576;DHT22;33304;52.456;13.328;2023-06-26T13:09:51;33.20;1.00
47576;DHT22;33304;52.456;13.328;2023-06-26T13:12:18;32.60;1.00
47576;DHT22;33304;52.456;13.328;2023-06-26T13:14:46;32.30;1.00
47576;DHT22;33304;52.456;13.328;2023-06-26T13:17:14;32.10;1.00
47576;DHT22;33304;52.456;13.328;2023-06-26T13:19:41;31.90;1.00
47576;DHT22;33304;52.456;13.328;2023-06-26T13:22:09;31.60;1.00
47576;DHT22;33304;52.456;13.328;2023-06-26T13:24:36;31.00;1.00
47576;DHT22;33304;52.456;13.328;2023-06-26T13:27:03;30.80;1.00
47576;DHT22;33304;52.456;13.328;2023-06-26T13:29:31;30.70;1.00
47576;DHT22;33304;52.456;13.328;2023-06-26T13:32:00;30.40;1.00
47576;DHT22;33304;52.456;13.328;2023-06-26T13:34:28;30.20;1.00
47576;DHT22;33304;52.456;13.328;2023-06-26T13:36:56;30.20;1.00
47576;DHT22;33304;52.456;13.328;2023-06-26T13:39:23;30.20;1.00
47576;DHT22;33304;52.456;13.328;2023-06-26T13:41:50;30.50;1.00
47576;DHT22;33304;52.456;13.328;2023-06-26T13:44:17;31.10;1.00
47576;DHT22;33304;52.456;13.328;2023-06-26T13:46:44;31.50;1.00
47576;DHT22;33304;52.456;13.328;2023-06-26T13:49:12;32.10;1.00
47576;DHT22;33304;52.456;13.328;2023-06-26T13:51:39;32.80;1.00
47576;DHT22;33304;52.456;13.328;2023-06-26T13:54:11;32.50;1.00
47576;DHT22;33304;52.456;13.328;2023-06-26T13:56:38;32.20;1.00
47576;DHT22;33304;52.456;13.328;2023-06-26T13:59:05;31.90;1.00
47576;DHT22;33304;52.456;13.328;2023-06-26T14:01:32;31.40;1.00
47576;DHT22;33304;52.456;13.328;2023-06-26T14:03:59;31.10;1.00
47576;DHT22;33304;52.456;13.328;2023-06-26T14:06:28;30.80;1.00
47576;DHT22;33304;52.456;13.328;2023-06-26T14:08:56;30.60;1.00
47576;DHT22;33304;52.456;13.328;2023-06-26T14:11:23;30.20;1.00
47576;DHT22;33304;52.456;13.328;2023-06-26T14:13:51;29.80;1.00
47576;DHT22;33304;52.456;13.328;2023-06-26T14:16:18;29.80;1.00
47576;DHT22;33304;52.456;13.328;2023-06-26T14:18:46;29.80;1.00
47576;DHT22;33304;52.456;13.328;2023-06-26T14:21:13;29.00;2.20
47576;DHT22;33304;52.456;13.328;2023-06-26T14:23:42;26.90;14.00
47576;DHT22;33304;52.456;13.328;2023-06-26T14:26:09;23.70;32.00
47576;DHT22;33304;52.456;13.328;2023-06-26T14:28:37;22.10;54.20
47576;DHT22;33304;52.456;13.328;2023-06-26T14:31:04;21.30;97.70
47576;DHT22;33304;52.456;13.328;2023-06-26T14:33:32;20.90;99.90
47576;DHT22;33304;52.456;13.328;2023-06-26T14:35:59;20.60;99.90
47576;DHT22;33304;52.456;13.328;2023-06-26T14:38:26;20.30;99.90
47576;DHT22;33304;52.456;13.328;2023-06-26T14:40:54;20.30;99.90
47576;DHT22;33304;52.456;13.328;2023-06-26T14:43:22;20.10;99.90
47576;DHT22;33304;52.456;13.328;2023-06-26T14:45:49;20.20;99.90
47576;DHT22;33304;52.456;13.328;2023-06-26T14:48:16;20.20;99.90
47576;DHT22;33304;52.456;13.328;2023-06-26T14:50:45;20.30;99.90
47576;DHT22;33304;52.456;13.328;2023-06-26T14:53:12;20.50;99.90
47576;DHT22;33304;52.456;13.328;2023-06-26T14:55:39;20.60;99.90
47576;DHT22;33304;52.456;13.328;2023-06-26T14:58:07;20.60;99.90
47576;DHT22;33304;52.456;13.328;2023-06-26T15:00:34;20.60;99.90
47576;DHT22;33304;52.456;13.328;2023-06-26T15:03:02;20.60;99.90
47576;DHT22;33304;52.456;13.328;2023-06-26T15:05:29;20.60;99.90
47576;DHT22;33304;52.456;13.328;2023-06-26T15:07:56;20.50;99.90
47576;DHT22;33304;52.456;13.328;2023-06-26T15:10:23;20.50;99.90
47576;DHT22;33304;52.456;13.328;2023-06-26T15:12:51;20.40;99.90
47576;DHT22;33304;52.456;13.328;2023-06-26T15:15:20;20.40;99.90
47576;DHT22;33304;52.456;13.328;2023-06-26T15:17:48;20.50;99.90
47576;DHT22;33304;52.456;13.328;2023-06-26T15:20:15;20.40;99.90
47576;DHT22;33304;52.456;13.328;2023-06-26T15:22:42;20.40;99.90
47576;DHT22;33304;52.456;13.328;2023-06-26T15:25:09;20.50;99.90
47576;DHT22;33304;52.456;13.328;2023-06-26T15:27:36;20.50;99.90
47576;DHT22;33304;52.456;13.328;2023-06-26T15:30:04;20.50;99.90
47576;DHT22;33304;52.456;13.328;2023-06-26T15:32:33;20.50;99.90